Time;durP1;ratioP1;P1;durP2;ratioP2;P2;SDS_P1;SDS_P2;PMS_P1;PMS_P2;Temp;Humidity;BMP_temperature;BMP_pressure;BME280_temperature;BME280_humidity;BME280_pressure;Samples;Min_cycle;Max_cycle;Signal;HPM_P1;HPM_P2
2021/01/08 00:01:50;;;;;;;21.08;8.00;;;;;;;1.67;100.00;101354.38;4975052;28;20043;-78
2021/01/08 00:04:16;;;;;;;22.38;9.18;;;;;;;1.64;100.00;101352.75;4958295;29;20039;-78
2021/01/08 00:06:41;;;;;;;20.08;8.55;;;;;;;1.61;100.00;101360.03;4973753;28;20042;-78
2021/01/08 00:09:06;;;;;;;18.20;8.60;;;;;;;1.57;100.00;101356.75;4942163;29;20035;-76
2021/01/08 00:11:38;;;;;;;18.17;8.32;;;;;;;1.57;100.00;101353.25;4960009;28;20035;-76
2021/01/08 00:14:03;;;;;;;23.05;9.30;;;;;;;1.60;100.00;101363.63;4958425;28;20058;-77
2021/01/08 00:16:34;;;;;;;20.58;8.57;;;;;;;1.60;100.00;101358.34;4973801;28;20035;-77
2021/01/08 00:19:00;;;;;;;24.50;9.82;;;;;;;1.62;100.00;101356.47;4957904;28;20118;-77
2021/01/08 00:21:36;;;;;;;19.77;9.05;;;;;;;1.63;100.00;101353.72;4959510;28;20032;-78
2021/01/08 00:24:02;;;;;;;20.05;9.20;;;;;;;1.62;100.00;101356.47;4961949;28;20059;-77
2021/01/08 00:26:28;;;;;;;18.70;9.25;;;;;;;1.64;100.00;101360.69;4973440;28;20035;-77
2021/01/08 00:28:53;;;;;;;20.95;9.77;;;;;;;1.63;100.00;101364.28;4958327;28;20035;-77
2021/01/08 00:31:18;;;;;;;19.40;9.50;;;;;;;1.68;100.00;101356.06;4958018;28;20043;-75
2021/01/08 00:33:44;;;;;;;19.05;9.35;;;;;;;1.63;100.00;101355.50;4957317;28;20556;-78
2021/01/08 00:36:09;;;;;;;27.75;10.70;;;;;;;1.57;100.00;101359.41;4957673;28;20039;-77
2021/01/08 00:38:35;;;;;;;29.30;10.32;;;;;;;1.58;100.00;101358.44;4957915;28;20449;-77
2021/01/08 00:41:00;;;;;;;20.60;10.15;;;;;;;1.61;100.00;101355.63;4973105;28;20050;-78
2021/01/08 00:43:28;;;;;;;18.08;9.68;;;;;;;1.56;100.00;101349.78;4973403;28;20032;-78
2021/01/08 00:45:53;;;;;;;24.95;11.20;;;;;;;1.55;100.00;101348.88;4958542;28;20132;-76
2021/01/08 00:48:19;;;;;;;25.40;10.40;;;;;;;1.60;100.00;101345.97;4958120;28;20031;-77
2021/01/08 00:50:44;;;;;;;28.48;12.32;;;;;;;1.52;100.00;101350.91;4957830;28;20158;-77
2021/01/08 00:53:09;;;;;;;27.65;10.00;;;;;;;1.52;100.00;101342.97;4958123;28;20038;-77
2021/01/08 00:55:35;;;;;;;23.10;10.75;;;;;;;1.49;100.00;101346.63;4957098;28;20481;-78
2021/01/08 00:58:00;;;;;;;28.55;11.68;;;;;;;1.49;100.00;101346.63;4972150;28;20031;-77
2021/01/08 01:00:26;;;;;;;25.27;11.07;;;;;;;1.53;100.00;101339.38;4957525;29;20433;-77
2021/01/08 01:02:51;;;;;;;23.90;10.38;;;;;;;1.54;100.00;101346.34;4957742;28;20035;-77
2021/01/08 01:05:17;;;;;;;22.17;10.32;;;;;;;1.52;100.00;101343.81;4957010;28;20485;-77
2021/01/08 01:07:42;;;;;;;29.23;11.23;;;;;;;1.53;100.00;101344.66;4957271;28;20035;-77
2021/01/08 01:10:08;;;;;;;26.08;11.35;;;;;;;1.43;100.00;101343.53;4972992;28;20098;-75
2021/01/08 01:12:34;;;;;;;27.08;11.00;;;;;;;1.40;100.00;101346.34;4957160;28;20065;-76
2021/01/08 01:14:59;;;;;;;24.60;11.73;;;;;;;1.39;100.00;101347.31;4957099;29;20062;-77
2021/01/08 01:17:25;;;;;;;23.45;11.43;;;;;;;1.38;100.00;101356.19;4956987;29;20063;-77
2021/01/08 01:19:52;;;;;;;25.27;10.98;;;;;;;1.33;100.00;101348.53;4973001;28;20373;-76
2021/01/08 01:22:18;;;;;;;24.88;11.52;;;;;;;1.34;100.00;101346.75;4972917;28;20130;-78
2021/01/08 01:24:43;;;;;;;26.20;11.15;;;;;;;1.36;100.00;101350.16;4972988;28;20071;-77
2021/01/08 01:27:08;;;;;;;28.25;11.55;;;;;;;1.35;100.00;101349.28;4957684;28;20094;-77
2021/01/08 01:29:34;;;;;;;23.10;11.35;;;;;;;1.35;100.00;101345.78;4957853;28;20035;-76
2021/01/08 01:31:59;;;;;;;22.33;10.27;;;;;;;1.36;100.00;101344.88;4958065;29;20039;-77
2021/01/08 01:34:25;;;;;;;28.20;11.57;;;;;;;1.29;100.00;101341.75;4958416;28;20039;-77
2021/01/08 01:36:50;;;;;;;24.00;11.73;;;;;;;1.25;100.00;101346.34;4956654;28;20082;-77
2021/01/08 01:39:16;;;;;;;26.98;11.00;;;;;;;1.32;100.00;101351.28;4956319;28;20166;-78
2021/01/08 01:41:42;;;;;;;27.88;11.20;;;;;;;1.28;100.00;101353.25;4957566;28;20031;-78
2021/01/08 01:44:07;;;;;;;23.02;10.82;;;;;;;1.33;100.00;101355.63;4957760;28;20035;-77
2021/01/08 01:46:33;;;;;;;24.00;10.80;;;;;;;1.36;100.00;101355.44;4972124;28;20035;-77
2021/01/08 01:48:59;;;;;;;28.20;11.13;;;;;;;1.34;100.00;101362.59;4956746;28;20038;-77
2021/01/08 01:51:25;;;;;;;26.75;10.90;;;;;;;1.42;100.00;101360.34;4957398;28;20035;-77
2021/01/08 01:53:51;;;;;;;24.40;10.30;;;;;;;1.36;100.00;101361.59;4956767;28;20023;-75
2021/01/08 01:56:17;;;;;;;27.85;11.45;;;;;;;1.37;100.00;101355.34;4972338;28;20086;-76
2021/01/08 01:58:43;;;;;;;26.33;10.65;;;;;;;1.45;100.00;101361.00;4958106;28;20043;-78
2021/01/08 02:01:10;;;;;;;22.27;9.52;;;;;;;1.41;100.00;101361.31;4967653;28;20354;-77
2021/01/08 02:03:44;;;;;;;28.55;10.80;;;;;;;1.39;100.00;101366.66;4952787;28;20397;-76
2021/01/08 02:06:13;;;;;;;27.33;11.60;;;;;;;1.37;100.00;101362.44;4952718;28;20035;-76
2021/01/08 02:08:44;;;;;;;25.75;10.23;;;;;;;1.46;100.00;101364.50;4952999;28;20381;-76
2021/01/08 02:11:13;;;;;;;25.15;9.80;;;;;;;1.44;100.00;101361.09;4952221;28;20397;-76
2021/01/08 02:13:39;;;;;;;32.67;10.38;;;;;;;1.41;100.00;101361.31;4967644;28;20096;-76
2021/01/08 02:16:07;;;;;;;28.95;10.02;;;;;;;1.40;100.00;101364.88;4945631;28;20055;-77
2021/01/08 02:18:34;;;;;;;27.10;10.73;;;;;;;1.36;100.00;101361.59;4952316;28;20027;-76
2021/01/08 02:21:05;;;;;;;27.42;9.93;;;;;;;1.35;100.00;101373.06;4952410;28;20105;-76
2021/01/08 02:23:47;;;;;;;21.83;9.45;;;;;;;1.36;100.00;101374.81;4951940;28;20045;-76
2021/01/08 02:26:13;;;;;;;25.23;10.18;;;;;;;1.36;100.00;101369.50;4952099;28;20118;-76
2021/01/08 02:28:39;;;;;;;25.52;8.98;;;;;;;1.45;100.00;101363.63;4952358;28;20122;-76
2021/01/08 02:31:04;;;;;;;24.10;9.98;;;;;;;1.40;100.00;101370.16;4952394;28;20086;-76
2021/01/08 02:33:31;;;;;;;23.98;9.43;;;;;;;1.44;100.00;101379.59;4952324;28;20035;-76
2021/01/08 02:36:01;;;;;;;21.38;9.77;;;;;;;1.41;100.00;101374.53;4952365;28;20552;-77
2021/01/08 02:38:28;;;;;;;23.58;9.52;;;;;;;1.44;100.00;101371.66;4952597;28;20051;-78
2021/01/08 02:40:55;;;;;;;25.30;10.35;;;;;;;1.46;100.00;101375.09;4952294;28;20039;-76
2021/01/08 02:43:23;;;;;;;24.30;9.43;;;;;;;1.51;100.00;101370.38;4951956;28;20028;-76
2021/01/08 02:45:50;;;;;;;24.25;9.75;;;;;;;1.46;100.00;101375.09;4952350;28;20043;-76
2021/01/08 02:48:17;;;;;;;23.30;9.75;;;;;;;1.52;100.00;101375.53;4950154;28;20050;-77
2021/01/08 02:50:48;;;;;;;22.90;11.07;;;;;;;1.49;100.00;101380.16;4951868;28;20029;-77
2021/01/08 02:53:15;;;;;;;20.58;9.73;;;;;;;1.46;100.00;101380.38;4952117;28;20039;-76
2021/01/08 02:55:54;;;;;;;21.45;10.07;;;;;;;1.49;100.00;101378.38;4952228;28;20027;-77
2021/01/08 02:58:21;;;;;;;22.77;9.30;;;;;;;1.43;100.00;101385.84;4952040;28;20035;-76
2021/01/08 03:00:47;;;;;;;26.25;11.30;;;;;;;1.41;100.00;101378.00;4951786;28;20046;-77
2021/01/08 03:03:13;;;;;;;30.83;9.95;;;;;;;1.39;100.00;101385.16;4952023;28;20067;-77
2021/01/08 03:05:51;;;;;;;24.02;9.90;;;;;;;1.41;100.00;101383.28;4952143;28;20035;-77
2021/01/08 03:08:19;;;;;;;20.85;8.82;;;;;;;1.48;100.00;101371.38;4952058;28;20090;-77
2021/01/08 03:10:44;;;;;;;23.50;10.05;;;;;;;1.43;100.00;101385.84;4951894;28;20688;-77
2021/01/08 03:13:13;;;;;;;23.05;9.45;;;;;;;1.45;100.00;101384.78;4951987;28;20516;-77
2021/01/08 03:15:41;;;;;;;24.48;9.60;;;;;;;1.47;100.00;101382.06;4951614;28;20035;-77
2021/01/08 03:18:07;;;;;;;23.08;8.98;;;;;;;1.46;100.00;101381.22;4951389;28;20089;-77
2021/01/08 03:20:32;;;;;;;20.65;9.55;;;;;;;1.41;100.00;101387.75;4952265;28;20043;-77
2021/01/08 03:22:58;;;;;;;25.02;8.82;;;;;;;1.40;100.00;101381.56;4955389;28;20430;-76
2021/01/08 03:25:23;;;;;;;24.42;9.40;;;;;;;1.37;100.00;101380.94;4955293;28;20138;-76
2021/01/08 03:27:49;;;;;;;21.98;9.65;;;;;;;1.38;100.00;101388.75;4954989;28;20034;-77
2021/01/08 03:30:15;;;;;;;23.63;8.18;;;;;;;1.41;100.00;101379.81;4955129;28;20031;-77
2021/01/08 03:32:41;;;;;;;23.60;9.38;;;;;;;1.43;100.00;101386.69;4955693;28;20119;-77
2021/01/08 03:35:07;;;;;;;22.13;9.30;;;;;;;1.48;100.00;101375.81;4955169;28;20500;-76
2021/01/08 03:37:33;;;;;;;22.33;8.93;;;;;;;1.53;100.00;101377.25;4955084;28;20062;-76
2021/01/08 03:39:58;;;;;;;24.65;9.00;;;;;;;1.43;100.00;101383.19;4955087;28;20031;-76
2021/01/08 03:42:24;;;;;;;22.98;8.40;;;;;;;1.47;100.00;101380.28;4953990;28;20122;-77
2021/01/08 03:44:49;;;;;;;21.38;9.18;;;;;;;1.49;100.00;101374.88;4954669;28;20595;-77
2021/01/08 03:47:15;;;;;;;37.83;11.18;;;;;;;1.49;100.00;101378.38;4949209;28;20028;-76
2021/01/08 03:49:40;;;;;;;18.95;7.97;;;;;;;1.49;100.00;101369.59;4952875;28;20474;-76
2021/01/08 03:52:07;;;;;;;23.40;8.70;;;;;;;1.49;100.00;101372.22;4954948;28;20394;-77
2021/01/08 03:54:33;;;;;;;20.15;8.10;;;;;;;1.48;100.00;101367.91;4954660;28;20091;-77
2021/01/08 03:56:59;;;;;;;21.38;8.82;;;;;;;1.51;100.00;101375.66;4952896;28;20027;-78
2021/01/08 03:59:25;;;;;;;26.02;9.27;;;;;;;1.48;100.00;101374.03;4953969;28;20110;-78
2021/01/08 04:01:50;;;;;;;22.15;8.45;;;;;;;1.49;100.00;101377.53;4954512;28;20062;-77
2021/01/08 04:04:16;;;;;;;17.10;7.93;;;;;;;1.44;100.00;101371.66;4954768;28;20111;-77
2021/01/08 04:06:41;;;;;;;21.67;8.63;;;;;;;1.43;100.00;101383.19;4954363;28;20034;-76
2021/01/08 04:09:07;;;;;;;21.23;8.35;;;;;;;1.41;100.00;101385.09;4954618;28;20062;-77
2021/01/08 04:11:33;;;;;;;27.75;9.48;;;;;;;1.45;100.00;101374.22;4954155;28;20102;-77
2021/01/08 04:13:58;;;;;;;16.90;8.23;;;;;;;1.47;100.00;101380.28;4954401;28;20028;-76
2021/01/08 04:16:34;;;;;;;21.63;8.48;;;;;;;1.45;100.00;101381.28;4953941;28;20114;-77
2021/01/08 04:19:00;;;;;;;19.63;9.00;;;;;;;1.41;100.00;101379.81;4949826;28;20039;-77
2021/01/08 04:21:25;;;;;;;20.33;8.88;;;;;;;1.38;100.00;101382.63;4954396;28;20031;-77
2021/01/08 04:23:51;;;;;;;19.63;8.05;;;;;;;1.37;100.00;101376.50;4953891;28;20046;-78
2021/01/08 04:26:16;;;;;;;19.38;8.88;;;;;;;1.33;100.00;101377.63;4952854;28;20039;-77
2021/01/08 04:28:42;;;;;;;20.92;8.95;;;;;;;1.38;100.00;101382.63;4954112;28;20038;-77
2021/01/08 04:31:07;;;;;;;27.50;11.57;;;;;;;1.35;100.00;101382.81;4954405;28;20027;-77
2021/01/08 04:33:33;;;;;;;28.55;12.55;;;;;;;1.34;100.00;101367.91;4953418;28;20089;-77
2021/01/08 04:35:58;;;;;;;46.13;23.42;;;;;;;1.39;100.00;101369.31;4953938;28;20028;-77
2021/01/08 04:38:24;;;;;;;23.75;9.60;;;;;;;1.39;100.00;101379.03;4953622;28;20039;-79
2021/01/08 04:40:49;;;;;;;21.77;9.50;;;;;;;1.38;100.00;101372.06;4954123;28;20490;-77
2021/01/08 04:43:15;;;;;;;22.92;9.75;;;;;;;1.40;100.00;101375.44;4953822;28;20046;-77
2021/01/08 04:45:40;;;;;;;26.65;10.10;;;;;;;1.37;100.00;101373.00;4953876;28;20042;-77
2021/01/08 04:48:06;;;;;;;22.75;9.57;;;;;;;1.37;100.00;101373.00;4953703;28;20043;-77
2021/01/08 04:50:32;;;;;;;20.88;9.40;;;;;;;1.37;100.00;101378.28;4953440;28;20034;-77
2021/01/08 04:52:57;;;;;;;23.55;10.35;;;;;;;1.45;100.00;101382.13;4953939;28;20035;-77
2021/01/08 04:55:25;;;;;;;20.45;9.70;;;;;;;1.49;100.00;101369.59;4953700;28;20086;-77
2021/01/08 04:57:53;;;;;;;24.73;10.15;;;;;;;1.58;100.00;101379.59;4952089;28;20031;-77
2021/01/08 05:00:19;;;;;;;23.75;11.25;;;;;;;1.57;100.00;101375.25;4953674;28;20046;-77
2021/01/08 05:02:46;;;;;;;20.40;9.02;;;;;;;1.54;100.00;101378.09;4953413;28;20043;-77
2021/01/08 05:05:14;;;;;;;21.58;10.50;;;;;;;1.55;100.00;101383.28;4952322;28;20032;-77
2021/01/08 05:07:39;;;;;;;27.98;14.40;;;;;;;1.56;100.00;101378.84;4953059;28;20035;-76
2021/01/08 05:10:06;;;;;;;19.85;9.80;;;;;;;1.60;100.00;101380.34;4953625;28;20031;-77
2021/01/08 05:12:38;;;;;;;21.85;10.98;;;;;;;1.64;100.00;101389.78;4953443;28;20111;-76
2021/01/08 05:15:08;;;;;;;55.72;28.50;;;;;;;1.69;100.00;101382.41;4953309;28;20094;-77
2021/01/08 05:17:34;;;;;;;20.08;9.15;;;;;;;1.62;100.00;101391.69;4953297;28;20034;-77
2021/01/08 05:20:00;;;;;;;25.88;11.50;;;;;;;1.57;100.00;101393.78;4941634;28;20086;-76
2021/01/08 05:22:26;;;;;;;28.55;17.00;;;;;;;1.57;100.00;101395.56;4936070;29;20501;-77
2021/01/08 05:24:59;;;;;;;22.20;11.50;;;;;;;1.50;100.00;101397.72;4952977;28;20067;-77
2021/01/08 05:27:27;;;;;;;24.38;11.20;;;;;;;1.49;100.00;101393.38;4953402;28;20489;-77
2021/01/08 05:29:53;;;;;;;27.95;11.63;;;;;;;1.58;100.00;101405.19;4952945;28;20031;-79
2021/01/08 05:32:18;;;;;;;23.58;9.38;;;;;;;1.46;100.00;101399.72;4952019;28;20035;-76
2021/01/08 05:34:44;;;;;;;32.13;11.40;;;;;;;1.48;100.00;101402.28;4967700;28;20034;-77
2021/01/08 05:37:14;;;;;;;28.05;11.93;;;;;;;1.46;100.00;101409.47;4952745;28;20093;-76
2021/01/08 05:39:41;;;;;;;28.45;13.70;;;;;;;1.48;100.00;101407.56;4952679;28;20109;-77
2021/01/08 05:42:07;;;;;;;24.30;11.15;;;;;;;1.44;100.00;101400.75;4952679;28;20039;-76
2021/01/08 05:44:32;;;;;;;30.13;11.63;;;;;;;1.45;100.00;101405.09;4951903;28;20050;-77
2021/01/08 05:46:58;;;;;;;25.48;12.10;;;;;;;1.48;100.00;101396.97;4952645;28;20035;-77
2021/01/08 05:49:25;;;;;;;28.63;11.55;;;;;;;1.41;100.00;101400.97;4952099;28;20043;-79
2021/01/08 05:51:52;;;;;;;30.42;13.55;;;;;;;1.42;100.00;101400.00;4953014;28;20043;-77
2021/01/08 05:54:18;;;;;;;32.03;12.90;;;;;;;1.41;100.00;101403.59;4952682;28;20031;-77
2021/01/08 05:56:45;;;;;;;33.47;13.05;;;;;;;1.51;100.00;101410.03;4952783;28;20043;-77
2021/01/08 05:59:11;;;;;;;32.10;12.30;;;;;;;1.43;100.00;101407.84;4952630;28;20789;-76
2021/01/08 06:01:39;;;;;;;24.13;11.60;;;;;;;1.42;100.00;101405.28;4952607;28;20114;-77
2021/01/08 06:04:05;;;;;;;29.23;12.00;;;;;;;1.39;100.00;101410.75;4951265;28;20497;-77
2021/01/08 06:06:41;;;;;;;27.85;12.02;;;;;;;1.37;100.00;101410.88;4952426;28;20041;-76
2021/01/08 06:09:10;;;;;;;28.42;12.00;;;;;;;1.33;100.00;101409.34;4952645;28;20031;-77
2021/01/08 06:11:36;;;;;;;27.75;12.10;;;;;;;1.38;100.00;101404.63;4952378;28;20122;-77
2021/01/08 06:14:03;;;;;;;30.25;12.93;;;;;;;1.30;100.00;101398.94;4952571;28;20385;-80
2021/01/08 06:16:42;;;;;;;32.80;13.70;;;;;;;1.30;100.00;101412.16;4952065;28;20441;-79
2021/01/08 06:19:08;;;;;;;32.42;14.25;;;;;;;1.34;100.00;101408.41;4950003;28;20043;-80
2021/01/08 06:21:37;;;;;;;37.22;16.45;;;;;;;1.35;100.00;101404.78;4944198;28;20378;-79
2021/01/08 06:24:04;;;;;;;46.67;25.13;;;;;;;1.40;100.00;101409.81;4952120;28;20031;-80
2021/01/08 06:26:30;;;;;;;42.97;22.73;;;;;;;1.43;100.00;101410.47;4952280;28;20030;-79
2021/01/08 06:29:01;;;;;;;44.47;26.77;;;;;;;1.34;100.00;101410.19;4951974;28;20031;-80
2021/01/08 06:31:36;;;;;;;39.65;19.45;;;;;;;1.30;100.00;101412.16;4952362;28;20070;-80
2021/01/08 06:34:02;;;;;;;33.58;14.15;;;;;;;1.27;100.00;101412.38;4951200;28;20521;-79
2021/01/08 06:36:32;;;;;;;36.03;15.07;;;;;;;1.26;100.00;101416.81;4952412;28;20047;-81
2021/01/08 06:39:00;;;;;;;42.03;16.67;;;;;;;1.29;100.00;101411.31;4952740;28;20516;-80
2021/01/08 06:41:26;;;;;;;34.10;16.15;;;;;;;1.29;100.00;101413.97;4952215;28;20042;-80
2021/01/08 06:43:56;;;;;;;35.33;15.55;;;;;;;1.25;100.00;101414.22;4956101;28;20589;-81
2021/01/08 06:46:33;;;;;;;34.13;15.02;;;;;;;1.23;100.00;101418.78;4952594;28;20027;-79
2021/01/08 06:49:04;;;;;;;36.63;16.08;;;;;;;1.19;100.00;101420.75;4967424;28;20430;-79
2021/01/08 06:51:32;;;;;;;45.83;20.08;;;;;;;1.20;100.00;101416.31;4951907;28;20035;-79
2021/01/08 06:54:00;;;;;;;42.42;18.63;;;;;;;1.13;100.00;101415.81;4951960;28;20023;-79
2021/01/08 06:56:28;;;;;;;39.00;17.02;;;;;;;1.08;100.00;101423.19;4953578;28;20098;-79
2021/01/08 06:58:55;;;;;;;40.05;16.90;;;;;;;1.13;100.00;101425.56;4956080;28;20039;-79
2021/01/08 07:01:27;;;;;;;34.03;14.68;;;;;;;1.17;100.00;101422.63;4955672;28;20037;-79
2021/01/08 07:03:53;;;;;;;30.95;13.85;;;;;;;1.20;100.00;101427.72;4955026;28;20445;-78
2021/01/08 07:06:19;;;;;;;43.33;16.08;;;;;;;1.14;100.00;101429.88;4954716;28;20038;-78
2021/01/08 07:08:45;;;;;;;46.78;18.08;;;;;;;1.16;100.00;101436.81;4956138;28;20031;-78
2021/01/08 07:11:21;;;;;;;51.15;19.55;;;;;;;1.19;100.00;101433.97;4970638;28;20074;-77
2021/01/08 07:13:47;;;;;;;48.30;19.50;;;;;;;1.22;100.00;101435.59;4956055;28;20130;-79
2021/01/08 07:16:20;;;;;;;43.88;18.17;;;;;;;1.26;100.00;101450.31;4955687;28;20540;-79
2021/01/08 07:18:46;;;;;;;65.38;25.35;;;;;;;1.29;100.00;101444.84;4955826;28;20045;-77
2021/01/08 07:21:23;;;;;;;55.47;21.75;;;;;;;1.24;100.00;101449.53;4948439;28;20093;-77
2021/01/08 07:23:52;;;;;;;46.47;18.10;;;;;;;1.23;100.00;101447.84;4955341;28;20046;-76
2021/01/08 07:26:18;;;;;;;53.17;22.10;;;;;;;1.26;100.00;101450.31;4954236;28;20102;-76
2021/01/08 07:28:51;;;;;;;48.70;19.55;;;;;;;1.25;100.00;101456.53;4948348;28;20062;-76
2021/01/08 07:31:28;;;;;;;36.85;16.27;;;;;;;1.27;100.00;101454.66;4955736;28;20437;-78
2021/01/08 07:33:56;;;;;;;41.22;18.25;;;;;;;1.26;100.00;101464.38;4955907;28;20047;-79
2021/01/08 07:36:24;;;;;;;37.22;16.58;;;;;;;1.28;100.00;101467.78;4955617;28;20035;-79
2021/01/08 07:38:50;;;;;;;43.53;17.10;;;;;;;1.25;100.00;101459.16;4955423;28;20046;-79
2021/01/08 07:41:33;;;;;;;40.13;16.33;;;;;;;1.37;100.00;101469.03;4956251;28;20110;-79
2021/01/08 07:43:59;;;;;;;36.53;14.98;;;;;;;1.29;100.00;101477.41;4954974;28;20086;-80
2021/01/08 07:46:30;;;;;;;38.60;15.80;;;;;;;1.32;100.00;101473.75;4971100;28;20031;-79
2021/01/08 07:48:57;;;;;;;37.90;14.98;;;;;;;1.26;100.00;101477.59;4952320;28;20126;-79
2021/01/08 07:51:23;;;;;;;37.80;14.70;;;;;;;1.33;100.00;101485.16;4945145;29;20031;-80
2021/01/08 07:53:51;;;;;;;38.90;15.30;;;;;;;1.28;100.00;101488.94;4953434;28;20055;-80
2021/01/08 07:56:20;;;;;;;39.75;15.80;;;;;;;1.26;100.00;101487.31;4948724;28;20042;-81
2021/01/08 07:58:55;;;;;;;38.42;15.45;;;;;;;1.24;100.00;101495.31;4955040;28;20050;-80
2021/01/08 08:01:21;;;;;;;42.97;16.90;;;;;;;1.25;100.00;101499.66;4954087;28;20406;-79
2021/01/08 08:03:56;;;;;;;42.90;15.88;;;;;;;1.18;100.00;101500.97;4952529;28;20046;-78
2021/01/08 08:06:23;;;;;;;39.78;16.35;;;;;;;1.19;100.00;101499.19;4953115;28;20024;-78
2021/01/08 08:08:49;;;;;;;35.55;15.55;;;;;;;1.27;100.00;101502.25;4953102;28;20895;-80
2021/01/08 08:11:18;;;;;;;43.95;16.13;;;;;;;1.29;100.00;101503.00;4969998;28;20032;-79
2021/01/08 08:13:44;;;;;;;38.55;16.63;;;;;;;1.24;100.00;101503.25;4952613;28;20520;-80
2021/01/08 08:16:10;;;;;;;46.22;16.80;;;;;;;1.30;100.00;101504.69;4954541;28;20042;-80
2021/01/08 08:18:49;;;;;;;37.15;16.85;;;;;;;1.24;100.00;101511.19;4948877;28;20027;-77
2021/01/08 08:21:15;;;;;;;39.22;15.68;;;;;;;1.24;100.00;101503.25;4967547;28;20031;-80
2021/01/08 08:23:40;;;;;;;37.92;16.25;;;;;;;1.17;100.00;101506.38;4953990;28;20031;-80
2021/01/08 08:26:06;;;;;;;47.92;17.33;;;;;;;1.13;100.00;101516.25;4968459;28;20165;-80
2021/01/08 08:28:31;;;;;;;45.63;16.73;;;;;;;1.11;100.00;101514.66;4953681;28;20118;-80
2021/01/08 08:30:57;;;;;;;47.08;18.58;;;;;;;1.20;100.00;101514.94;4953921;28;20039;-80
2021/01/08 08:33:23;;;;;;;45.25;18.33;;;;;;;1.21;100.00;101523.75;4954968;28;20042;-80
2021/01/08 08:35:50;;;;;;;40.85;18.17;;;;;;;1.18;100.00;101530.06;4965792;28;20035;-79
2021/01/08 08:38:16;;;;;;;54.80;18.33;;;;;;;1.26;100.00;101530.47;4977347;28;20062;-80
2021/01/08 08:40:41;;;;;;;42.67;17.55;;;;;;;1.44;100.00;101530.31;4957682;28;20039;-81
2021/01/08 08:43:08;;;;;;;49.67;17.73;;;;;;;1.35;100.00;101544.91;4976364;28;20036;-80
2021/01/08 08:45:35;;;;;;;46.38;19.55;;;;;;;1.41;100.00;101535.81;4961904;28;20273;-79
2021/01/08 08:48:05;;;;;;;46.17;20.05;;;;;;;1.37;100.00;101537.75;4957905;28;20310;-83
2021/01/08 08:50:33;;;;;;;51.70;19.83;;;;;;;1.36;100.00;101540.50;4955054;28;20027;-78
2021/01/08 08:53:09;;;;;;;48.85;19.17;;;;;;;1.44;100.00;101548.81;4973984;28;20023;-80
2021/01/08 08:55:35;;;;;;;49.00;18.58;;;;;;;1.43;100.00;101544.47;4970220;28;20038;-79
2021/01/08 08:58:02;;;;;;;42.20;17.23;;;;;;;1.49;100.00;101552.03;4955272;28;20031;-77
2021/01/08 09:00:28;;;;;;;46.65;18.30;;;;;;;1.40;100.00;101547.28;4954860;28;20055;-78
2021/01/08 09:02:54;;;;;;;45.30;18.15;;;;;;;1.43;100.00;101547.13;4953103;28;20121;-82
2021/01/08 09:05:20;;;;;;;45.00;18.02;;;;;;;1.47;100.00;101559.22;4954085;28;20031;-81
2021/01/08 09:07:50;;;;;;;42.55;18.20;;;;;;;1.39;100.00;101558.81;4953855;28;20031;-81
2021/01/08 09:10:23;;;;;;;44.55;19.20;;;;;;;1.42;100.00;101558.66;4968991;28;20039;-83
2021/01/08 09:12:59;;;;;;;47.00;18.73;;;;;;;1.50;100.00;101551.09;4953850;28;20028;-82
2021/01/08 09:15:30;;;;;;;46.90;19.15;;;;;;;1.52;100.00;101547.44;4958942;28;20067;-78
2021/01/08 09:18:09;;;;;;;48.75;19.25;;;;;;;1.60;100.00;101557.53;4940247;28;20038;-79
2021/01/08 09:20:49;;;;;;;51.15;20.85;;;;;;;1.52;100.00;101552.72;4954746;28;20390;-79
2021/01/08 09:23:16;;;;;;;50.80;21.70;;;;;;;1.53;100.00;101550.94;4944867;28;20027;-77
2021/01/08 09:25:43;;;;;;;43.78;18.50;;;;;;;1.56;100.00;101553.41;4955515;28;20031;-79
2021/01/08 09:28:18;;;;;;;48.65;20.45;;;;;;;1.57;100.00;101562.19;4955054;28;20237;-78
2021/01/08 09:30:50;;;;;;;44.95;18.92;;;;;;;1.61;100.00;101561.03;4971176;28;20035;-79
2021/01/08 09:33:16;;;;;;;42.60;18.00;;;;;;;1.68;100.00;101565.03;4952205;28;20051;-78
2021/01/08 09:35:45;;;;;;;46.15;19.50;;;;;;;1.74;100.00;101562.03;4918765;29;20059;-79
2021/01/08 09:38:14;;;;;;;46.45;19.83;;;;;;;1.70;100.00;101564.00;4951120;28;20027;-79
2021/01/08 09:40:43;;;;;;;55.22;21.35;;;;;;;1.67;100.00;101564.19;4968454;28;20113;-79
2021/01/08 09:43:18;;;;;;;43.45;19.60;;;;;;;1.66;100.00;101569.59;4952818;28;20027;-79
2021/01/08 09:45:44;;;;;;;50.97;21.38;;;;;;;1.69;100.00;101572.03;4951332;28;20505;-79
2021/01/08 09:48:24;;;;;;;51.47;20.70;;;;;;;1.66;100.00;101570.44;4953062;28;20115;-79
2021/01/08 09:51:05;;;;;;;61.00;22.27;;;;;;;1.71;100.00;101571.00;4951346;28;20039;-80
2021/01/08 09:53:34;;;;;;;50.08;19.20;;;;;;;1.77;100.00;101561.84;4971074;28;20031;-79
2021/01/08 09:56:16;;;;;;;50.30;20.50;;;;;;;1.91;100.00;101566.28;4948281;28;20031;-79
2021/01/08 09:58:43;;;;;;;60.05;22.92;;;;;;;1.96;100.00;101574.81;4965471;28;20584;-79
2021/01/08 10:01:24;;;;;;;102.85;50.33;;;;;;;2.05;100.00;101568.94;4968573;28;20058;-79
2021/01/08 10:03:57;;;;;;;61.03;32.65;;;;;;;2.19;100.00;101582.19;4936824;29;20039;-79
2021/01/08 10:06:23;;;;;;;47.03;22.73;;;;;;;2.28;100.00;101584.28;4950041;28;20029;-79
2021/01/08 10:09:06;;;;;;;48.20;19.70;;;;;;;2.34;100.00;101569.81;4970655;28;20114;-80
2021/01/08 10:11:36;;;;;;;38.60;17.23;;;;;;;2.55;100.00;101578.19;4952095;28;20046;-79
2021/01/08 10:14:06;;;;;;;37.72;16.77;;;;;;;2.54;100.00;101576.50;4945827;28;20042;-79
2021/01/08 10:16:44;;;;;;;43.45;19.33;;;;;;;2.53;100.00;101574.81;4954171;28;20085;-79
2021/01/08 10:19:13;;;;;;;40.13;18.13;;;;;;;2.57;100.00;101582.47;4956086;28;20058;-80
2021/01/08 10:21:43;;;;;;;33.92;16.15;;;;;;;2.52;100.00;101583.69;4953644;28;20027;-80
2021/01/08 10:24:09;;;;;;;43.13;17.40;;;;;;;2.55;100.00;101575.53;4937338;29;20043;-79
2021/01/08 10:26:36;;;;;;;36.95;17.02;;;;;;;2.54;100.00;101580.00;4953420;28;20024;-79
2021/01/08 10:29:04;;;;;;;41.95;17.80;;;;;;;2.74;100.00;101581.38;4954429;28;20031;-80
2021/01/08 10:31:32;;;;;;;38.38;16.98;;;;;;;2.73;100.00;101579.69;4977477;28;20477;-79
2021/01/08 10:33:59;;;;;;;35.45;15.13;;;;;;;2.67;100.00;101580.09;4984893;28;20439;-81
2021/01/08 10:36:26;;;;;;;43.25;18.15;;;;;;;2.69;100.00;101586.13;4961805;28;20039;-79
2021/01/08 10:39:02;;;;;;;40.58;17.60;;;;;;;2.80;100.00;101582.78;4957355;28;20032;-79
2021/01/08 10:41:28;;;;;;;43.58;17.60;;;;;;;2.82;100.00;101586.22;4946338;28;20526;-80
2021/01/08 10:43:54;;;;;;;37.05;15.88;;;;;;;2.93;100.00;101580.22;4930138;28;20082;-81
2021/01/08 10:46:21;;;;;;;43.72;20.63;;;;;;;2.96;100.00;101582.66;4976957;28;20116;-80
2021/01/08 10:48:50;;;;;;;49.35;22.05;;;;;;;2.97;100.00;101582.56;4963463;28;20078;-84
2021/01/08 10:51:29;;;;;;;67.03;36.78;;;;;;;2.98;100.00;101584.25;4963863;28;20057;-82
2021/01/08 10:53:55;;;;;;;51.17;24.48;;;;;;;2.93;100.00;101582.88;4961120;28;20059;-80
2021/01/08 10:56:28;;;;;;;62.90;25.27;;;;;;;3.06;100.00;101586.41;4953532;28;20037;-80
2021/01/08 10:58:53;;;;;;;57.17;26.63;;;;;;;3.09;100.00;101588.88;4945440;29;20039;-78
2021/01/08 11:01:19;;;;;;;47.25;23.27;;;;;;;3.13;100.00;101586.88;4956737;28;20031;-79
2021/01/08 11:03:46;;;;;;;46.22;19.48;;;;;;;3.14;100.00;101586.75;4960660;28;20035;-79
2021/01/08 11:06:19;;;;;;;39.67;17.50;;;;;;;3.26;100.00;101591.28;4961618;28;20027;-78
2021/01/08 11:08:46;;;;;;;39.33;17.10;;;;;;;3.43;100.00;101586.66;4946362;28;20184;-78
2021/01/08 11:11:17;;;;;;;49.83;18.27;;;;;;;3.41;100.00;101588.53;4965527;28;20031;-78
2021/01/08 11:13:43;;;;;;;38.30;16.55;;;;;;;3.34;100.00;101591.59;4960038;28;20038;-80
2021/01/08 11:16:10;;;;;;;39.67;17.20;;;;;;;3.24;100.00;101592.31;4945001;28;20035;-78